Time;durP1;ratioP1;P1;durP2;ratioP2;P2;SDS_P1;SDS_P2;PMS_P1;PMS_P2;Temp;Humidity;BMP_temperature;BMP_pressure;BME280_temperature;BME280_humidity;BME280_pressure;Samples;Min_cycle;Max_cycle;Signal;HPM_P1;HPM_P2
2021/09/11 00:00:36;;;;;;;;;;;;;;;-144.99;100.00;52287.06;5062735;28;20426;-75
2021/09/11 00:03:04;;;;;;;;;;;;;;;-144.99;100.00;52280.97;5063641;28;19971;-75
2021/09/11 00:05:30;;;;;;;;;;;;;;;-144.99;100.00;52260.56;5061802;28;19925;-75
2021/09/11 00:07:56;;;;;;;;;;;;;;;-144.99;100.00;52309.50;5054003;28;19925;-75
2021/09/11 00:10:23;;;;;;;;;;;;;;;-144.99;100.00;52270.78;5062172;28;19954;-74
2021/09/11 00:12:49;;;;;;;;;;;;;;;-144.99;100.00;52252.44;5063940;28;19990;-74
2021/09/11 00:15:17;;;;;;;;;;;;;;;-144.99;100.00;52264.66;5064377;28;19935;-74
2021/09/11 00:17:43;;;;;;;;;;;;;;;-144.99;100.00;52248.34;5064955;28;20002;-75
2021/09/11 00:20:12;;;;;;;;;;;;;;;-144.99;100.00;52297.25;5063062;28;19928;-76
2021/09/11 00:22:38;;;;;;;;;;;;;;;-144.99;100.00;52240.19;5060795;28;19981;-77
2021/09/11 00:25:05;;;;;;;;;;;;;;;-144.99;100.00;52258.53;5062607;28;20314;-77
2021/09/11 00:27:31;;;;;;;;;;;;;;;-144.99;100.00;52244.28;5058327;28;19962;-77
2021/09/11 00:29:58;;;;;;;;;;;;;;;-144.99;100.00;52280.97;5062815;28;19929;-77
2021/09/11 00:32:24;;;;;;;;;;;;;;;-144.99;100.00;52303.38;5056354;28;20405;-76
2021/09/11 00:34:50;;;;;;;;;;;;;;;-144.99;100.00;52285.03;5066634;28;19954;-78
2021/09/11 00:37:18;;;;;;;;;;;;;;;-144.99;100.00;52280.97;5059744;28;19931;-74
2021/09/11 00:39:44;;;;;;;;;;;;;;;-144.99;100.00;52268.72;5063378;28;19932;-76
2021/09/11 00:42:10;;;;;;;;;;;;;;;-144.99;100.00;52289.13;5063018;28;19998;-74
2021/09/11 00:44:37;;;;;;;;;;;;;;;-144.99;100.00;52268.72;5064513;28;21587;-77
2021/09/11 00:47:03;;;;;;;;;;;;;;;-144.99;100.00;52329.88;5063541;28;19947;-77
2021/09/11 00:49:29;;;;;;;;;;;;;;;-144.99;100.00;52301.34;5064609;28;19963;-78
2021/09/11 00:51:56;;;;;;;;;;;;;;;-144.99;100.00;52272.81;5060278;28;19957;-74
2021/09/11 00:54:23;;;;;;;;;;;;;;;-144.99;100.00;52285.03;5060863;28;19929;-76
2021/09/11 00:56:50;;;;;;;;;;;;;;;-144.99;100.00;52299.31;5066165;28;19928;-76
2021/09/11 00:59:17;;;;;;;;;;;;;;;-144.99;100.00;52276.88;5061927;28;19928;-75
2021/09/11 01:01:43;;;;;;;;;;;;;;;-144.99;100.00;52285.03;5061430;28;20448;-75
2021/09/11 01:04:09;;;;;;;;;;;;;;;-144.99;100.00;52268.72;5063073;28;20392;-75
2021/09/11 01:06:36;;;;;;;;;;;;;;;-144.99;100.00;52240.19;5061655;28;19928;-76
2021/09/11 01:09:02;;;;;;;;;;;;;;;-144.99;100.00;52305.41;5059904;28;19928;-75
2021/09/11 01:11:30;;;;;;;;;;;;;;;-144.99;100.00;52297.25;5063521;28;19936;-75
2021/09/11 01:13:57;;;;;;;;;;;;;;;-144.99;100.00;52293.19;5062323;28;20516;-76
2021/09/11 01:16:25;;;;;;;;;;;;;;;-144.99;100.00;52256.50;5062153;28;20341;-76
2021/09/11 01:18:51;;;;;;;;;;;;;;;-144.99;100.00;52266.69;5061752;28;19929;-75
2021/09/11 01:21:17;;;;;;;;;;;;;;;-144.99;100.00;52272.81;5060525;28;19931;-76
2021/09/11 01:23:45;;;;;;;;;;;;;;;-144.99;100.00;52285.03;5063748;28;19933;-75
2021/09/11 01:26:14;;;;;;;;;;;;;;;-144.99;100.00;52313.56;5062758;28;20415;-77
2021/09/11 01:28:40;;;;;;;;;;;;;;;-144.99;100.00;52260.56;5062509;28;20095;-76
2021/09/11 01:31:07;;;;;;;;;;;;;;;-144.99;100.00;52268.72;5062359;28;19961;-79
2021/09/11 01:33:33;;;;;;;;;;;;;;;-144.99;100.00;52258.53;5063850;28;19932;-79
2021/09/11 01:35:59;;;;;;;;;;;;;;;-144.99;100.00;52268.72;5064717;28;19972;-77
2021/09/11 01:38:26;;;;;;;;;;;;;;;-144.99;100.00;52301.34;5063012;28;20340;-78
2021/09/11 01:40:53;;;;;;;;;;;;;;;-144.99;100.00;52240.19;5068952;28;19966;-78
2021/09/11 01:43:26;;;;;;;;;;;;;;;-144.99;100.00;52289.13;5063646;28;19924;-74
2021/09/11 01:45:53;;;;;;;;;;;;;;;-144.99;100.00;52289.13;5061687;28;19965;-75
2021/09/11 01:48:19;;;;;;;;;;;;;;;-144.99;100.00;52276.88;5062032;28;20056;-77
2021/09/11 01:50:45;;;;;;;;;;;;;;;-144.99;100.00;52289.13;5061450;28;19967;-75
2021/09/11 01:53:11;;;;;;;;;;;;;;;-144.99;100.00;52246.31;5060050;28;19935;-75
2021/09/11 01:55:38;;;;;;;;;;;;;;;-144.99;100.00;52285.03;5059662;28;19972;-75
2021/09/11 01:58:05;;;;;;;;;;;;;;;-144.99;100.00;52315.59;5060944;28;20379;-75
2021/09/11 02:00:32;;;;;;;;;;;;;;;-144.99;100.00;52258.53;5060780;28;19969;-75
2021/09/11 02:02:58;;;;;;;;;;;;;;;-144.99;100.00;52321.72;5064302;28;19941;-76
2021/09/11 02:05:24;;;;;;;;;;;;;;;-144.99;100.00;52293.19;5063201;28;19947;-76
2021/09/11 02:07:51;;;;;;;;;;;;;;;-144.99;100.00;52276.88;5065122;28;19924;-76
2021/09/11 02:10:18;;;;;;;;;;;;;;;-144.99;100.00;52264.66;5062875;28;19935;-76
2021/09/11 02:12:45;;;;;;;;;;;;;;;-144.99;100.00;52272.81;5065193;28;20054;-77
2021/09/11 02:15:12;;;;;;;;;;;;;;;-144.99;100.00;52264.66;5065963;28;19982;-75
2021/09/11 02:17:39;;;;;;;;;;;;;;;-144.99;100.00;52264.66;5064803;28;20326;-75
2021/09/11 02:20:06;;;;;;;;;;;;;;;-144.99;100.00;52262.63;5064392;28;20399;-75
2021/09/11 02:22:32;;;;;;;;;;;;;;;-144.99;100.00;52280.97;5062137;28;20542;-76
2021/09/11 02:24:58;;;;;;;;;;;;;;;-144.99;100.00;52268.72;5064592;28;19955;-75
2021/09/11 02:27:25;;;;;;;;;;;;;;;-144.99;100.00;52280.97;5065569;28;19936;-76
2021/09/11 02:29:51;;;;;;;;;;;;;;;-144.99;100.00;52276.88;5062825;28;19962;-76
2021/09/11 02:32:19;;;;;;;;;;;;;;;-144.99;100.00;52301.34;5060984;28;20024;-76
2021/09/11 02:34:45;;;;;;;;;;;;;;;-144.99;100.00;52313.56;5065546;28;19945;-76
2021/09/11 02:37:11;;;;;;;;;;;;;;;-144.99;100.00;52268.72;5062084;28;19951;-75
2021/09/11 02:39:38;;;;;;;;;;;;;;;-144.99;100.00;52264.66;5059863;28;19966;-75
2021/09/11 02:42:04;;;;;;;;;;;;;;;-144.99;100.00;52291.16;5066902;28;20139;-75
2021/09/11 02:44:31;;;;;;;;;;;;;;;-144.99;100.00;52289.13;5065677;28;19968;-75
2021/09/11 02:46:57;;;;;;;;;;;;;;;-144.99;100.00;52256.50;5072057;28;19955;-75
2021/09/11 02:49:25;;;;;;;;;;;;;;;-144.99;100.00;52276.88;5084080;28;20355;-75
2021/09/11 02:51:51;;;;;;;;;;;;;;;-144.99;100.00;52285.03;5068534;28;19961;-75
2021/09/11 02:54:17;;;;;;;;;;;;;;;-144.99;100.00;52293.19;5066709;28;20302;-75
2021/09/11 02:56:44;;;;;;;;;;;;;;;-144.99;100.00;52285.03;5064221;28;19937;-75
2021/09/11 02:59:10;;;;;;;;;;;;;;;-144.99;100.00;52268.72;5072219;28;19935;-75
2021/09/11 03:01:36;;;;;;;;;;;;;;;-144.99;100.00;52309.50;5068232;28;19924;-75
2021/09/11 03:04:02;;;;;;;;;;;;;;;-144.99;100.00;52285.03;5066198;28;19931;-75
2021/09/11 03:06:30;;;;;;;;;;;;;;;-144.99;100.00;52268.72;5062596;28;19948;-75
2021/09/11 03:08:56;;;;;;;;;;;;;;;-144.99;100.00;52278.91;5064920;28;19973;-75
2021/09/11 03:11:23;;;;;;;;;;;;;;;-144.99;100.00;52280.97;5065463;28;19955;-76
2021/09/11 03:13:50;;;;;;;;;;;;;;;-144.99;100.00;52276.88;5065678;28;19946;-75
2021/09/11 03:16:16;;;;;;;;;;;;;;;-144.99;100.00;52305.41;5066100;28;19925;-75
2021/09/11 03:18:42;;;;;;;;;;;;;;;-144.99;100.00;52315.59;5064054;28;20415;-75
2021/09/11 03:21:08;;;;;;;;;;;;;;;-144.99;100.00;52268.72;5063248;28;19936;-76
2021/09/11 03:23:36;;;;;;;;;;;;;;;-144.99;100.00;52244.28;5062637;28;19936;-75
2021/09/11 03:26:03;;;;;;;;;;;;;;;-144.99;100.00;52287.06;5066600;28;20455;-76
2021/09/11 03:28:29;;;;;;;;;;;;;;;-144.99;100.00;52293.19;5062488;28;19924;-76
2021/09/11 03:30:55;;;;;;;;;;;;;;;-144.99;100.00;52315.59;5061654;28;19928;-76
2021/09/11 03:33:22;;;;;;;;;;;;;;;-144.99;100.00;52272.81;5062280;28;19932;-75
2021/09/11 03:35:48;;;;;;;;;;;;;;;-144.99;100.00;52280.97;5065656;28;19925;-76
2021/09/11 03:38:14;;;;;;;;;;;;;;;-144.99;100.00;52293.19;5065230;28;20112;-76
2021/09/11 03:40:42;;;;;;;;;;;;;;;-144.99;100.00;52287.06;5064536;28;19925;-75
2021/09/11 03:43:08;;;;;;;;;;;;;;;-144.99;100.00;52276.88;5065029;28;19967;-75
2021/09/11 03:45:34;;;;;;;;;;;;;;;-144.99;100.00;52268.72;5060014;28;20448;-76
2021/09/11 03:48:01;;;;;;;;;;;;;;;-144.99;100.00;52256.50;5063719;28;19971;-75
2021/09/11 03:50:28;;;;;;;;;;;;;;;-144.99;100.00;52276.88;5061584;28;20302;-75
2021/09/11 03:52:54;;;;;;;;;;;;;;;-144.99;100.00;52266.69;5063790;28;20406;-76
2021/09/11 03:55:20;;;;;;;;;;;;;;;-144.99;100.00;52307.47;5060714;28;20344;-77
2021/09/11 03:57:48;;;;;;;;;;;;;;;-144.99;100.00;52260.56;5068805;28;19928;-76
2021/09/11 04:00:14;;;;;;;;;;;;;;;-144.99;100.00;52260.56;5063941;28;19943;-77
2021/09/11 04:02:41;;;;;;;;;;;;;;;-144.99;100.00;52285.03;5064323;28;20470;-76
2021/09/11 04:05:07;;;;;;;;;;;;;;;-144.99;100.00;52289.13;5064110;28;19970;-76
2021/09/11 04:07:34;;;;;;;;;;;;;;;-144.99;100.00;52268.72;5059912;28;20425;-76
2021/09/11 04:10:00;;;;;;;;;;;;;;;-144.99;100.00;52256.50;5064255;28;19955;-77
2021/09/11 04:12:26;;;;;;;;;;;;;;;-144.99;100.00;52260.56;5063860;28;19935;-76
2021/09/11 04:14:54;;;;;;;;;;;;;;;-144.99;100.00;52291.16;5065518;28;20422;-75
2021/09/11 04:17:20;;;;;;;;;;;;;;;-144.99;100.00;52280.97;5060008;28;19955;-73
2021/09/11 04:19:46;;;;;;;;;;;;;;;-144.99;100.00;52297.25;5061517;28;20484;-75
2021/09/11 04:22:13;;;;;;;;;;;;;;;-144.99;100.00;52272.81;5065007;28;19931;-75
2021/09/11 04:24:39;;;;;;;;;;;;;;;-144.99;100.00;52272.81;5063428;28;20444;-74
2021/09/11 04:27:05;;;;;;;;;;;;;;;-144.99;100.00;52260.56;5063736;28;19960;-75
2021/09/11 04:29:32;;;;;;;;;;;;;;;-144.99;100.00;52285.03;5063441;28;19964;-74
2021/09/11 04:31:59;;;;;;;;;;;;;;;-144.99;100.00;52264.66;5064315;28;19925;-74
2021/09/11 04:34:25;;;;;;;;;;;;;;;-144.99;100.00;52248.34;5064537;28;19961;-75
2021/09/11 04:36:52;;;;;;;;;;;;;;;-144.99;100.00;52297.25;5064551;28;19970;-76
2021/09/11 04:39:18;;;;;;;;;;;;;;;-144.99;100.00;52236.13;5064738;28;19933;-74
2021/09/11 04:41:44;;;;;;;;;;;;;;;-144.99;100.00;52305.41;5062798;28;20314;-74
2021/09/11 04:44:11;;;;;;;;;;;;;;;-144.99;100.00;52289.13;5064814;28;19962;-74
2021/09/11 04:46:37;;;;;;;;;;;;;;;-144.99;100.00;52276.88;5064062;28;20080;-76
2021/09/11 04:49:04;;;;;;;;;;;;;;;-144.99;100.00;52248.34;5061653;28;19989;-76
2021/09/11 04:51:31;;;;;;;;;;;;;;;-144.99;100.00;52276.88;5062330;28;20397;-75
2021/09/11 04:53:57;;;;;;;;;;;;;;;-144.99;100.00;52256.50;5062518;28;20102;-76
2021/09/11 04:56:23;;;;;;;;;;;;;;;-144.99;100.00;52311.53;5062765;28;19932;-75
2021/09/11 04:58:50;;;;;;;;;;;;;;;-144.99;100.00;52280.97;5065538;28;19936;-75
2021/09/11 05:01:16;;;;;;;;;;;;;;;-144.99;100.00;52276.88;5064842;28;19924;-76
2021/09/11 05:03:42;;;;;;;;;;;;;;;-144.99;100.00;52264.66;5063423;28;20421;-76
2021/09/11 05:06:10;;;;;;;;;;;;;;;-144.99;100.00;52252.44;5063854;28;19928;-75
2021/09/11 05:08:37;;;;;;;;;;;;;;;-144.99;100.00;52313.56;5062355;28;20126;-75
2021/09/11 05:11:03;;;;;;;;;;;;;;;-144.99;100.00;52321.72;5063160;28;19929;-75
2021/09/11 05:13:29;;;;;;;;;;;;;;;-144.99;100.00;52248.34;5064476;28;20477;-75
2021/09/11 05:15:56;;;;;;;;;;;;;;;-144.99;100.00;52256.50;5061972;28;19935;-74
2021/09/11 05:18:22;;;;;;;;;;;;;;;-144.99;100.00;52256.50;5060087;28;19932;-76
2021/09/11 05:20:48;;;;;;;;;;;;;;;-144.99;100.00;52276.88;5070440;28;19925;-74
2021/09/11 05:23:16;;;;;;;;;;;;;;;-144.99;100.00;52289.13;5064078;28;19964;-75
2021/09/11 05:25:42;;;;;;;;;;;;;;;-144.99;100.00;52293.19;5052376;28;19929;-74
2021/09/11 05:28:09;;;;;;;;;;;;;;;-144.99;100.00;52260.56;5061755;28;19974;-76
2021/09/11 05:30:35;;;;;;;;;;;;;;;-144.99;100.00;52276.88;5060983;28;19928;-76
2021/09/11 05:33:01;;;;;;;;;;;;;;;-144.99;100.00;52256.50;5062211;28;20595;-77
2021/09/11 05:35:27;;;;;;;;;;;;;;;-144.99;100.00;52276.88;5061295;28;19932;-77
2021/09/11 05:37:54;;;;;;;;;;;;;;;-144.99;100.00;52266.69;5060295;28;20302;-74
2021/09/11 05:40:21;;;;;;;;;;;;;;;-144.99;100.00;52246.31;5097802;22;19932;-79
2021/09/11 05:42:48;;;;;;;;;;;;;;;-144.99;100.00;52260.56;5068476;28;19924;-79
2021/09/11 05:45:14;;;;;;;;;;;;;;;-144.99;100.00;52244.28;5063936;28;20387;-77
2021/09/11 05:47:40;;;;;;;;;;;;;;;-144.99;100.00;52297.25;5071571;28;19947;-79
2021/09/11 05:50:07;;;;;;;;;;;;;;;-144.99;100.00;52293.19;5060447;28;20649;-77
2021/09/11 05:52:34;;;;;;;;;;;;;;;-144.99;100.00;52252.44;5062482;28;19925;-76
2021/09/11 05:55:00;;;;;;;;;;;;;;;-144.99;100.00;52293.19;5061827;28;19928;-75
2021/09/11 05:57:28;;;;;;;;;;;;;;;-144.99;100.00;52254.47;5061014;28;20271;-79
2021/09/11 05:59:56;;;;;;;;;;;;;;;-144.99;100.00;52240.19;5056958;28;19925;-77
2021/09/11 06:02:22;;;;;;;;;;;;;;;-144.99;100.00;52264.66;5064089;28;19929;-77
2021/09/11 06:04:49;;;;;;;;;;;;;;;-144.99;100.00;52246.31;5062520;28;19974;-79
2021/09/11 06:07:15;;;;;;;;;;;;;;;-144.99;100.00;52268.72;5063607;28;19925;-80
2021/09/11 06:09:41;;;;;;;;;;;;;;;-144.99;100.00;52260.56;5060479;28;19924;-80
2021/09/11 06:12:10;;;;;;;;;;;;;;;-144.99;100.00;52268.72;5063186;28;19936;-75
2021/09/11 06:14:38;;;;;;;;;;;;;;;-144.99;100.00;52250.38;5065341;28;19955;-76
2021/09/11 06:17:04;;;;;;;;;;;;;;;-144.99;100.00;52256.50;5064760;28;19924;-76
2021/09/11 06:19:31;;;;;;;;;;;;;;;-144.99;100.00;52240.19;5063033;28;20390;-73
2021/09/11 06:21:57;;;;;;;;;;;;;;;-144.99;100.00;52268.72;5062917;28;19932;-76
2021/09/11 06:24:23;;;;;;;;;;;;;;;-144.99;100.00;52242.22;5062178;28;19935;-75
2021/09/11 06:26:49;;;;;;;;;;;;;;;-144.99;100.00;52278.91;5063211;28;20411;-77
2021/09/11 06:29:16;;;;;;;;;;;;;;;-144.99;100.00;52244.28;5062743;28;20069;-76
2021/09/11 06:31:43;;;;;;;;;;;;;;;-144.99;100.00;52223.88;5068241;28;20443;-75
2021/09/11 06:34:10;;;;;;;;;;;;;;;-144.99;100.00;52293.19;5064709;28;19932;-75
2021/09/11 06:36:36;;;;;;;;;;;;;;;-144.99;100.00;52264.66;5064517;28;19946;-75
2021/09/11 06:39:02;;;;;;;;;;;;;;;-144.99;100.00;52276.88;5065071;28;19932;-81
2021/09/11 06:41:29;;;;;;;;;;;;;;;-144.99;100.00;52276.88;5066258;28;19932;-76
2021/09/11 06:43:55;;;;;;;;;;;;;;;-144.99;100.00;52244.28;5065202;28;19940;-76
2021/09/11 06:46:21;;;;;;;;;;;;;;;-144.99;100.00;52264.66;5066906;28;19940;-75
2021/09/11 06:48:49;;;;;;;;;;;;;;;-144.99;100.00;52280.97;5067449;28;19983;-77
2021/09/11 06:51:15;;;;;;;;;;;;;;;-144.99;100.00;52240.19;5063197;28;19935;-76
2021/09/11 06:53:42;;;;;;;;;;;;;;;-144.99;100.00;52260.56;5064199;28;20395;-78
2021/09/11 06:56:08;;;;;;;;;;;;;;;-144.99;100.00;52254.47;5070688;28;20157;-82
2021/09/11 06:58:34;;;;;;;;;;;;;;;-144.99;100.00;52258.53;5071127;28;19997;-80
2021/09/11 07:01:00;;;;;;;;;;;;;;;-144.99;100.00;52240.19;5066964;28;19925;-78
2021/09/11 07:03:27;;;;;;;;;;;;;;;-144.99;100.00;52276.88;5065528;28;19928;-77
2021/09/11 07:05:54;;;;;;;;;;;;;;;-144.99;100.00;52227.97;5064973;28;19939;-76
2021/09/11 07:08:21;;;;;;;;;;;;;;;-144.99;100.00;52232.03;5064212;28;19939;-77
2021/09/11 07:10:47;;;;;;;;;;;;;;;-144.99;100.00;52252.44;5064590;28;20359;-76
2021/09/11 07:13:16;;;;;;;;;;;;;;;-144.99;100.00;52301.34;5065931;28;19935;-77
2021/09/11 07:15:43;;;;;;;;;;;;;;;-144.99;100.00;52258.53;5065720;28;19954;-77
2021/09/11 07:18:09;;;;;;;;;;;;;;;-144.99;100.00;52260.56;5065055;28;20077;-77
2021/09/11 07:20:35;;;;;;;;;;;;;;;-144.99;100.00;52254.47;5066099;28;20322;-77
2021/09/11 07:23:03;;;;;;;;;;;;;;;-144.99;100.00;52252.44;5063579;28;19940;-77
2021/09/11 07:25:30;;;;;;;;;;;;;;;-144.99;100.00;52264.66;5065435;28;20335;-76
2021/09/11 07:27:56;;;;;;;;;;;;;;;-144.99;100.00;52248.34;5063306;28;19928;-78
2021/09/11 07:30:23;;;;;;;;;;;;;;;-144.99;100.00;52236.13;5058314;28;19929;-78
2021/09/11 07:32:49;;;;;;;;;;;;;;;-144.99;100.00;52244.28;5061654;28;19931;-77
2021/09/11 07:35:16;;;;;;;;;;;;;;;-144.99;100.00;52317.66;5061834;28;19928;-80
2021/09/11 07:37:42;;;;;;;;;;;;;;;-144.99;100.00;52244.28;4361652;28;10001050;-78
2021/09/11 07:40:11;;;;;;;;;;;;;;;-144.99;100.00;52276.88;5057979;28;19929;-80
2021/09/11 07:42:37;;;;;;;;;;;;;;;-144.99;100.00;52276.88;5062024;28;19928;-77
2021/09/11 07:45:05;;;;;;;;;;;;;;;-144.99;100.00;52260.56;5066345;28;20035;-76
2021/09/11 07:47:32;;;;;;;;;;;;;;;-144.99;100.00;52266.69;5066381;28;19944;-78
2021/09/11 07:50:00;;;;;;;;;;;;;;;-144.99;100.00;52287.06;5066360;28;19936;-77
2021/09/11 07:52:26;;;;;;;;;;;;;;;-144.99;100.00;52256.50;5064532;28;20019;-78
2021/09/11 07:54:53;;;;;;;;;;;;;;;-144.99;100.00;52276.88;5066059;28;19924;-78
2021/09/11 07:57:20;;;;;;;;;;;;;;;-144.99;100.00;52297.25;5065993;28;19924;-78
2021/09/11 07:59:47;;;;;;;;;;;;;;;-144.99;100.00;52232.03;5064788;28;19932;-76
2021/09/11 08:02:13;;;;;;;;;;;;;;;-144.99;100.00;52303.38;5063907;28;19935;-76
2021/09/11 08:04:39;;;;;;;;;;;;;;;-144.99;100.00;52260.56;5064773;28;19936;-79
2021/09/11 08:07:05;;;;;;;;;;;;;;;-144.99;100.00;52268.72;5064707;28;19932;-79
2021/09/11 08:09:33;;;;;;;;;;;;;;;-144.99;100.00;52264.66;5065277;28;19928;-79
2021/09/11 08:12:00;;;;;;;;;;;;;;;-144.99;100.00;52268.72;5065906;28;19928;-79
2021/09/11 08:14:27;;;;;;;;;;;;;;;-144.99;100.00;52248.34;5069264;28;19940;-81
2021/09/11 08:16:54;;;;;;;;;;;;;;;-144.99;100.00;52285.03;5065696;28;19935;-79
2021/09/11 08:19:20;;;;;;;;;;;;;;;-144.99;100.00;52283.00;5064916;28;19925;-79
2021/09/11 08:21:46;;;;;;;;;;;;;;;-144.99;100.00;52258.53;5065707;28;19933;-79
2021/09/11 08:24:13;;;;;;;;;;;;;;;-144.99;100.00;52289.13;5071407;28;19928;-79
2021/09/11 08:26:39;;;;;;;;;;;;;;;-144.99;100.00;52260.56;5072342;28;19939;-80
2021/09/11 08:29:05;;;;;;;;;;;;;;;-144.99;100.00;52242.22;5066906;28;20577;-78
2021/09/11 08:31:33;;;;;;;;;;;;;;;-144.99;100.00;52248.34;5065058;28;19931;-77
2021/09/11 08:33:59;;;;;;;;;;;;;;;-144.99;100.00;52236.13;5064814;28;19935;-77
2021/09/11 08:36:26;;;;;;;;;;;;;;;-144.99;100.00;52295.22;5063070;28;19940;-78
2021/09/11 08:38:52;;;;;;;;;;;;;;;-144.99;100.00;52252.44;5063846;28;19929;-75
2021/09/11 08:41:18;;;;;;;;;;;;;;;-144.99;100.00;52250.38;5065032;28;19951;-79
2021/09/11 08:43:45;;;;;;;;;;;;;;;-144.99;100.00;52242.22;5064256;28;20460;-76
2021/09/11 08:46:11;;;;;;;;;;;;;;;-144.99;100.00;52240.19;5065350;28;19929;-78
2021/09/11 08:48:41;;;;;;;;;;;;;;;-144.99;100.00;52219.81;5064447;28;19940;-79
2021/09/11 08:51:08;;;;;;;;;;;;;;;-144.99;100.00;52256.50;5064350;28;19951;-77
2021/09/11 08:53:36;;;;;;;;;;;;;;;-144.99;100.00;52272.81;5060932;28;20021;-79
2021/09/11 08:56:08;;;;;;;;;;;;;;;-144.99;100.00;52236.13;5065069;28;19943;-78
2021/09/11 08:58:35;;;;;;;;;;;;;;;-144.99;100.00;52303.38;5064681;28;19932;-76
2021/09/11 09:01:02;;;;;;;;;;;;;;;-144.99;100.00;52268.72;5063970;28;19928;-79
2021/09/11 09:03:34;;;;;;;;;;;;;;;-144.99;100.00;52240.19;5065480;28;20186;-76
2021/09/11 09:06:16;;;;;;;;;;;;;;;-144.99;100.00;52242.22;5067687;28;19928;-78
2021/09/11 09:08:43;;;;;;;;;;;;;;;-144.99;100.00;52244.28;5060083;28;19928;-76
2021/09/11 09:11:19;;;;;;;;;;;;;;;-144.99;100.00;52252.44;5066542;28;19929;-77
2021/09/11 09:13:53;;;;;;;;;;;;;;;-144.99;100.00;52213.69;5064555;28;19928;-76
2021/09/11 09:16:20;;;;;;;;;;;;;;;-144.99;100.00;52223.88;5064524;28;19955;-76
2021/09/11 09:18:46;;;;;;;;;;;;;;;-144.99;100.00;52240.19;5062855;28;19933;-75
2021/09/11 09:21:18;;;;;;;;;;;;;;;-144.99;100.00;52248.34;5062927;28;19935;-73
2021/09/11 09:23:46;;;;;;;;;;;;;;;-144.99;100.00;52223.88;5061437;28;20188;-73
2021/09/11 09:26:12;;;;;;;;;;;;;;;-144.99;100.00;52252.44;5064460;28;19928;-73
2021/09/11 09:28:39;;;;;;;;;;;;;;;-144.99;100.00;52199.44;5064299;28;19928;-75
2021/09/11 09:31:09;;;;;;;;;;;;;;;-144.99;100.00;52248.34;5061622;28;20088;-76
2021/09/11 09:33:38;;;;;;;;;;;;;;;-144.99;100.00;52225.94;5064169;28;20034;-76
2021/09/11 09:36:04;;;;;;;;;;;;;;;-144.99;100.00;52252.44;5062179;28;19929;-79
2021/09/11 09:38:32;;;;;;;;;;;;;;;-144.99;99.78;52236.13;5062779;28;20299;-75
2021/09/11 09:40:58;;;;;;;;;;;;;;;-144.99;100.00;52236.13;5062926;28;19955;-78
2021/09/11 09:43:29;;;;;;;;;;;;;;;-144.99;99.34;52244.28;5064127;28;19932;-77
2021/09/11 09:46:02;;;;;;;;;;;;;;;-144.99;98.04;52225.94;5063009;28;20339;-78
2021/09/11 09:48:29;;;;;;;;;;;;;;;-144.99;97.69;52203.50;5061106;28;19925;-77
2021/09/11 09:51:02;;;;;;;;;;;;;;;-144.99;93.54;52207.59;5061177;28;19939;-77
2021/09/11 09:53:28;;;;;;;;;;;;;;;-144.99;91.72;52219.81;5060152;28;19928;-77
2021/09/11 09:55:56;;;;;;;;;;;;;;;-144.99;90.63;52205.53;5064582;28;19944;-77
2021/09/11 09:58:23;;;;;;;;;;;;;;;-144.99;90.43;52187.19;5065697;28;19930;-77
2021/09/11 10:00:49;;;;;;;;;;;;;;;-144.99;85.81;52207.59;5060508;28;19929;-76
2021/09/11 10:03:15;;;;;;;;;;;;;;;-144.99;86.07;52187.19;5064873;28;20070;-75
2021/09/11 10:05:43;;;;;;;;;;;;;;;-144.99;83.42;52199.44;5063886;28;19970;-73
2021/09/11 10:08:10;;;;;;;;;;;;;;;-144.99;80.14;52183.13;5058604;28;20391;-77
2021/09/11 10:10:39;;;;;;;;;;;;;;;-144.99;78.23;52191.28;5064753;28;20405;-77
2021/09/11 10:13:11;;;;;;;;;;;;;;;-144.99;77.78;52170.91;5066094;28;20389;-77
2021/09/11 10:15:48;;;;;;;;;;;;;;;-144.99;79.39;52195.34;5066235;28;19929;-77
2021/09/11 10:18:29;;;;;;;;;;;;;;;-144.99;80.34;52211.66;5065145;28;19963;-75
2021/09/11 10:21:11;;;;;;;;;;;;;;;-144.99;81.02;52232.03;5064309;28;19935;-76
2021/09/11 10:23:37;;;;;;;;;;;;;;;-144.99;82.07;52240.19;5062702;28;19935;-78
2021/09/11 10:26:03;;;;;;;;;;;;;;;-144.99;83.59;52236.13;5078203;28;20079;-78
2021/09/11 10:28:31;;;;;;;;;;;;;;;-144.99;84.04;52242.22;5065068;28;19928;-78
2021/09/11 10:31:08;;;;;;;;;;;;;;;-144.99;83.23;52250.38;5062907;28;19924;-78
2021/09/11 10:33:38;;;;;;;;;;;;;;;-144.99;84.21;52244.28;5064828;28;20017;-77
2021/09/11 10:36:05;;;;;;;;;;;;;;;-144.99;84.88;52264.66;5062254;28;20398;-75
2021/09/11 10:38:38;;;;;;;;;;;;;;;-144.99;85.13;52260.56;5063680;28;19936;-76
2021/09/11 10:41:07;;;;;;;;;;;;;;;-144.99;85.79;52256.50;5065821;28;20023;-76
2021/09/11 10:43:35;;;;;;;;;;;;;;;-144.99;85.34;52256.50;5065434;28;19928;-78
2021/09/11 10:46:04;;;;;;;;;;;;;;;-144.99;85.13;52264.66;5065899;28;20292;-77
2021/09/11 10:48:35;;;;;;;;;;;;;;;-144.99;85.42;52272.81;5066444;28;19936;-76
2021/09/11 10:51:11;;;;;;;;;;;;;;;-144.99;85.97;52262.63;5064688;28;19929;-77
2021/09/11 10:53:37;;;;;;;;;;;;;;;-144.99;85.46;52287.06;5065457;28;19935;-78
2021/09/11 10:56:18;;;;;;;;;;;;;;;-144.99;84.78;52283.00;5065729;28;19929;-76
2021/09/11 10:58:46;;;;;;;;;;;;;;;-144.99;85.10;52246.31;5061801;28;19928;-76
2021/09/11 11:01:12;;;;;;;;;;;;;;;-144.99;83.67;52264.66;5063997;28;19931;-77
2021/09/11 11:03:40;;;;;;;;;;;;;;;-144.99;84.05;52272.81;5065146;28;19928;-75
2021/09/11 11:06:06;;;;;;;;;;;;;;;-144.99;84.40;52285.03;5059840;28;20379;-75
2021/09/11 11:08:33;;;;;;;;;;;;;;;-144.99;84.77;52289.13;5063251;28;19964;-73
2021/09/11 11:11:02;;;;;;;;;;;;;;;-144.99;84.61;52276.88;5061408;28;19928;-76
2021/09/11 11:13:28;;;;;;;;;;;;;;;-144.99;83.86;52264.66;5064613;28;19960;-76
2021/09/11 11:15:56;;;;;;;;;;;;;;;-144.99;84.10;52297.25;5067834;28;20100;-77
2021/09/11 11:18:23;;;;;;;;;;;;;;;-144.99;85.10;52280.97;5069089;28;19924;-80
2021/09/11 11:20:49;;;;;;;;;;;;;;;-144.99;84.97;52248.34;5068065;28;19928;-73
2021/09/11 11:23:16;;;;;;;;;;;;;;;-144.99;85.38;52276.88;5068210;28;19951;-76
2021/09/11 11:25:42;;;;;;;;;;;;;;;-144.99;87.00;52252.44;5068447;28;19931;-77
2021/09/11 11:28:09;;;;;;;;;;;;;;;-144.99;87.13;52285.03;5069490;28;19924;-77
2021/09/11 11:30:36;;;;;;;;;;;;;;;-144.99;86.77;52248.34;5069646;28;19981;-77
2021/09/11 11:33:05;;;;;;;;;;;;;;;-144.99;85.59;52260.56;5069224;28;19925;-77
2021/09/11 11:35:32;;;;;;;;;;;;;;;-144.99;84.22;52248.34;5068968;28;20337;-81
2021/09/11 11:37:58;;;;;;;;;;;;;;;-144.99;81.12;52207.59;5065382;28;19947;-78
2021/09/11 11:40:26;;;;;;;;;;;;;;;-144.99;78.17;52203.50;5083802;22;19931;-75
2021/09/11 11:42:52;;;;;;;;;;;;;;;-144.99;75.79;52207.59;5078805;28;19963;-76
2021/09/11 11:45:24;;;;;;;;;;;;;;;-144.99;75.41;52221.84;5074507;28;19932;-76
2021/09/11 11:47:53;;;;;;;;;;;;;;;-144.99;76.20;52246.31;5081912;28;19928;-76
2021/09/11 11:50:23;;;;;;;;;;;;;;;-144.99;76.60;52244.28;5080655;28;20361;-77
2021/09/11 11:52:53;;;;;;;;;;;;;;;-144.99;77.61;52223.88;5084657;28;19984;-72
2021/09/11 11:55:20;;;;;;;;;;;;;;;-144.99;76.29;52024.16;5086852;28;20009;-71
2021/09/11 11:57:46;;;;;;;;;;;;;;;-144.99;72.45;52138.28;5080545;28;19951;-72
2021/09/11 12:00:16;;;;;;;;;;;;;;;-144.99;70.18;52044.53;5074519;28;19932;-71
2021/09/11 12:02:46;;;;;;;;;;;;;;;-144.99;69.50;52170.91;5074451;28;20349;-71
2021/09/11 12:05:17;;;;;;;;;;;;;;;-144.99;69.03;52191.28;5082742;28;19924;-70
2021/09/11 12:07:54;;;;;;;;;;;;;;;-144.99;69.48;52166.81;5082235;28;19932;-70
2021/09/11 12:10:20;;;;;;;;;;;;;;;-144.99;67.93;52150.53;5080994;28;20381;-71
2021/09/11 12:12:48;;;;;;;;;;;;;;;-144.99;66.01;52174.97;5083082;28;19973;-71
2021/09/11 12:15:16;;;;;;;;;;;;;;;-144.99;65.39;52211.66;5082641;28;19928;-70
2021/09/11 12:17:59;;;;;;;;;;;;;;;-144.99;65.89;52211.66;5076516;28;19932;-69